Flight Track Log - Related Links

Times and Time Zones

All times are in EDT time to prevent confusion due to time zone crossing. See the VNR104 flight status page for this flight to view local times or setup timezone preferences in your user account.

Time Position Orientation Groundspeed Altitude Reporting Facility
EDT Latitude Longitude Course Direction KTS MPH feet Rate Location/Type
Mon 09:37:00 PM 39.9915 -106.4249 143° Southeast  Level FlightAware Approximate
Mon 09:37:09 PM 39.6344 -106.9497 131° Southeast 162 186 33,000  Level Denver Center
Mon 09:38:00 PM 39.9175 -106.3508 142° Southeast  Level FlightAware Approximate
Mon 09:38:11 PM 39.5919 -107.0006 223° Southwest 180 207 9,700  Level Denver Center
Mon 09:39:00 PM 39.8435 -106.2768 142° Southeast  Level FlightAware Approximate
Mon 09:39:13 PM 39.6303 -107.0272 332° Northwest 194 223 12,000  Level Denver Center
Mon 09:40:00 PM 39.7695 -106.2028 142° Southeast  Level FlightAware Approximate
Mon 09:40:14 PM 39.6828 -107.0469 344° North 199 229 14,100  Level Denver Center
Mon 09:41:00 PM 39.7001 -106.1251 147° Southeast  Level FlightAware Approximate
Mon 09:41:28 PM 39.7364 -107.0808 334° Northwest 228 262 14,800  Level Denver Center
Mon 09:42:00 PM 39.6279 -106.0502 131° Southeast  Level FlightAware Approximate
Mon 09:42:31 PM 39.8039 -107.0064 40° Northeast 321 369 15,300  Level Denver Center
Mon 09:43:33 PM 39.8008 -106.8961 92° East 306 352 16,700 1,511 Climbing Denver Center
Mon 09:44:46 PM 39.7925 -106.7914 96° East 291 335 18,700 2,074 Climbing Denver Center
Mon 09:45:49 PM 39.7750 -106.6556 99° East 272 313 21,400 1,968 Climbing Denver Center
Mon 09:46:51 PM 39.7603 -106.5581 101° East 273 314 22,800 726 Climbing Denver Center
Mon 09:47:53 PM 39.7408 -106.4506 103° East 304 350 22,900 293 Climbing Denver Center
Mon 09:48:54 PM 39.7183 -106.3331 104° East 332 382 23,400 878 Climbing Denver Center
Mon 09:49:56 PM 39.6989 -106.2186 102° East 324 373 24,700 1,210 Climbing Denver Center
Mon 09:50:58 PM 39.6564 -106.1283 121° Southeast 311 358 25,900 629 Climbing Denver Center
Mon 09:52:00 PM 39.5844 -106.0583 143° Southeast 323 372 26,000 145 Climbing Denver Center
Mon 09:53:02 PM 39.5233 -105.9967 142° Southeast 340 391 26,200 726 Climbing Denver Center
Mon 09:54:04 PM 39.4214 -105.8894 141° Southeast 334 384 27,500 1,210 Climbing Denver Center
Mon 09:55:06 PM 39.3500 -105.8161 142° Southeast 328 377 28,700 1,210 Climbing Denver Center
Mon 09:56:08 PM 39.2842 -105.7481 141° Southeast 307 353 30,000 1,113 Climbing Denver Center
Mon 09:57:10 PM 39.2214 -105.6831 141° Southeast 290 334 31,000 780 Climbing Denver Center
Mon 09:58:11 PM 39.1572 -105.6172 141° Southeast 293 337 31,600 146 Climbing Denver Center
Mon 09:59:13 PM 39.0889 -105.5483 142° Southeast 307 353 31,300 -290 Descending Denver Center
Mon 10:00:15 PM 39.0042 -105.4614 141° Southeast 346 398 31,000 -145 Descending Denver Center
Mon 10:01:17 PM 38.9311 -105.3833 140° Southeast 355 409 31,000  Level Denver Center
Mon 10:02:31 PM 38.8428 -105.2967 143° Southeast 357 411 31,000  Level Denver Center
Mon 10:03:33 PM 38.7428 -105.1947 141° Southeast 359 413 31,000  Level Denver Center
Mon 10:04:35 PM 38.6661 -105.1194 143° Southeast 362 417 31,000  Level Denver Center
Mon 10:05:36 PM 38.5914 -105.0406 140° Southeast 363 418 31,000  Level Denver Center
Mon 10:06:38 PM 38.5025 -104.9517 142° Southeast 362 417 31,000  Level Denver Center
Mon 10:07:40 PM 38.4258 -104.8756 142° Southeast 364 419 31,000  Level Denver Center
Mon 10:08:42 PM 38.3372 -104.7878 142° Southeast 362 417 31,000  Level Denver Center
Mon 10:09:43 PM 38.2603 -104.7150 143° Southeast 360 414 31,000  Level Denver Center
Mon 10:10:45 PM 38.1714 -104.6258 142° Southeast 363 418 31,000  Level Denver Center
Mon 10:11:47 PM 38.0953 -104.5514 142° Southeast 363 418 31,000  Level Denver Center
Mon 10:13:00 PM 38.0197 -104.4761 142° Southeast 361 415 31,000  Level Denver Center
Mon 10:14:02 PM 37.9178 -104.3761 142° Southeast 362 417 31,000  Level Denver Center
Mon 10:15:16 PM 37.8147 -104.2767 143° Southeast 365 420 31,000  Level Denver Center
Mon 10:16:18 PM 37.7378 -104.2025 143° Southeast 364 419 31,000  Level Denver Center
Mon 10:17:20 PM 37.6475 -104.1150 142° Southeast 365 420 31,000  Level Denver Center
Mon 10:18:21 PM 37.5678 -104.0369 142° Southeast 364 419 31,000  Level Denver Center
Mon 10:19:23 PM 37.4836 -103.9561 143° Southeast 373 429 31,000  Level Denver Center
Mon 10:20:24 PM 37.3964 -103.8714 142° Southeast 360 414 31,000  Level Denver Center
Mon 10:21:26 PM 37.3200 -103.7983 143° Southeast 359 413 31,000  Level Denver Center
Mon 10:22:27 PM 37.2442 -103.7250 142° Southeast 359 413 31,000  Level Denver Center
Mon 10:23:29 PM 37.1542 -103.6400 143° Southeast 361 415 31,000  Level Denver Center
Mon 10:24:01 PM 37.1167 -103.6036 142° Southeast 361 415 31,000  Level Albuquerque Center
Mon 10:25:02 PM 37.0400 -103.5322 143° Southeast 360 414 31,000  Level Albuquerque Center
Mon 10:26:04 PM 36.9508 -103.4472 143° Southeast 360 414 31,000  Level Albuquerque Center
Mon 10:27:05 PM 36.8744 -103.3750 143° Southeast 359 413 31,000  Level Albuquerque Center
Mon 10:28:06 PM 36.7847 -103.2914 143° Southeast 361 415 31,000  Level Albuquerque Center
Mon 10:29:08 PM 36.7089 -103.2197 143° Southeast 358 412 31,000  Level Albuquerque Center
Mon 10:30:09 PM 36.6325 -103.1469 143° Southeast 358 412 31,000  Level Albuquerque Center
Mon 10:31:10 PM 36.5528 -103.0731 143° Southeast 356 410 31,000  Level Albuquerque Center
Mon 10:32:12 PM 36.4589 -102.9842 143° Southeast 358 412 31,000  Level Albuquerque Center
Mon 10:33:13 PM 36.3783 -102.9108 144° Southeast 357 411 31,000  Level Albuquerque Center
Mon 10:34:15 PM 36.2961 -102.8339 143° Southeast 359 413 31,000  Level Albuquerque Center
Mon 10:35:16 PM 36.2164 -102.7603 143° Southeast 358 412 31,000  Level Albuquerque Center
Mon 10:36:17 PM 36.1364 -102.6861 143° Southeast 359 413 31,000  Level Albuquerque Center
Mon 10:37:19 PM 36.0561 -102.6131 144° Southeast 359 413 31,000  Level Albuquerque Center
Mon 10:38:20 PM 35.9753 -102.5378 143° Southeast 363 418 31,000  Level Albuquerque Center
Mon 10:39:22 PM 35.8947 -102.4636 143° Southeast 362 417 31,000  Level Albuquerque Center
Mon 10:40:23 PM 35.8131 -102.3889 143° Southeast 365 420 31,000  Level Albuquerque Center
Mon 10:41:24 PM 35.7319 -102.3164 144° Southeast 363 418 31,000  Level Albuquerque Center
Mon 10:42:26 PM 35.6353 -102.2272 143° Southeast 363 418 31,000  Level Albuquerque Center
Mon 10:43:27 PM 35.5544 -102.1547 144° Southeast 362 417 31,000  Level Albuquerque Center
Mon 10:44:28 PM 35.4739 -102.0819 144° Southeast 361 415 31,000  Level Albuquerque Center
Mon 10:45:30 PM 35.3942 -102.0106 144° Southeast 359 413 31,000  Level Albuquerque Center
Mon 10:46:31 PM 35.3183 -101.9425 144° Southeast 359 413 31,000  Level Albuquerque Center
Mon 10:47:32 PM 35.2233 -101.8558 143° Southeast 360 414 31,000  Level Albuquerque Center
Mon 10:48:34 PM 35.1428 -101.7836 144° Southeast 358 412 31,000  Level Albuquerque Center
Mon 10:49:35 PM 35.0606 -101.7119 144° Southeast 359 413 31,000  Level Albuquerque Center
Mon 10:50:36 PM 34.9806 -101.6386 143° Southeast 355 409 31,000  Level Albuquerque Center
Mon 10:51:38 PM 34.9006 -101.5681 144° Southeast 361 415 31,000  Level Albuquerque Center
Mon 10:52:39 PM 34.8206 -101.4967 144° Southeast 358 412 31,000  Level Albuquerque Center
Mon 10:53:40 PM 34.7397 -101.4256 144° Southeast 359 413 31,000  Level Albuquerque Center
Mon 10:54:42 PM 34.6611 -101.3544 143° Southeast 356 410 31,000  Level Albuquerque Center
Mon 10:55:43 PM 34.5806 -101.2853 145° Southeast 355 409 31,000  Level Albuquerque Center
Mon 10:56:45 PM 34.4844 -101.2006 144° Southeast 355 409 31,000  Level Albuquerque Center
Mon 10:57:46 PM 34.4047 -101.1317 145° Southeast 354 407 31,000  Level Albuquerque Center
Mon 10:58:47 PM 34.3247 -101.0619 144° Southeast 354 407 31,000  Level Albuquerque Center
Mon 10:59:49 PM 34.2458 -100.9928 144° Southeast 352 405 31,000  Level Albuquerque Center
Mon 11:00:50 PM 34.1667 -100.9236 144° Southeast 351 404 31,000  Level Albuquerque Center
Mon 11:01:52 PM 34.0875 -100.8547 144° Southeast 352 405 31,000  Level Albuquerque Center
Mon 11:02:58 PM 34.0006 -100.7831 146° Southeast 348 400 31,000  Level Fort Worth Center
Mon 11:03:58 PM 33.9253 -100.7100 141° Southeast 348 400 31,000  Level Fort Worth Center
Mon 11:04:58 PM 33.8478 -100.6472 146° Southeast 348 400 31,000  Level Fort Worth Center
Mon 11:05:58 PM 33.7658 -100.5817 146° Southeast 348 400 31,000  Level Fort Worth Center
Mon 11:06:58 PM 33.6903 -100.5139 143° Southeast 348 400 31,000  Level Fort Worth Center
Mon 11:07:58 PM 33.6106 -100.4464 145° Southeast 348 400 31,000  Level Fort Worth Center
Mon 11:08:58 PM 33.5328 -100.3839 146° Southeast 348 400 31,000  Level Fort Worth Center
Mon 11:09:58 PM 33.4572 -100.3164 143° Southeast 343 395 31,000  Level Fort Worth Center
Mon 11:10:58 PM 33.3814 -100.2519 145° Southeast 343 395 31,000  Level Fort Worth Center
Mon 11:11:58 PM 33.3017 -100.1847 145° Southeast 348 400 31,000  Level Fort Worth Center
Mon 11:12:58 PM 33.2278 -100.1203 144° Southeast 348 400 31,000  Level Fort Worth Center
Mon 11:13:58 PM 33.1478 -100.0558 146° Southeast 348 400 31,000  Level Fort Worth Center
Mon 11:14:58 PM 33.0719 -99.9892 144° Southeast 348 400 31,000  Level Fort Worth Center
Mon 11:15:58 PM 32.9961 -99.9250 145° Southeast 348 400 31,000  Level Fort Worth Center
Mon 11:16:58 PM 32.9181 -99.8583 144° Southeast 348 400 31,000  Level Fort Worth Center
Mon 11:17:58 PM 32.8339 -99.7844 144° Southeast 348 400 31,000  Level Fort Worth Center
Mon 11:18:58 PM 32.7536 -99.7181 145° Southeast 348 400 31,000  Level Fort Worth Center
Mon 11:19:58 PM 32.6714 -99.6542 147° Southeast 348 400 31,000  Level Fort Worth Center
Mon 11:20:58 PM 32.5931 -99.5906 146° Southeast 348 400 31,000  Level Fort Worth Center
Mon 11:21:58 PM 32.5108 -99.5222 145° Southeast 348 400 31,000  Level Fort Worth Center
Mon 11:22:58 PM 32.4325 -99.4589 146° Southeast 348 400 31,000  Level Fort Worth Center
Mon 11:23:58 PM 32.3481 -99.3906 146° Southeast 355 409 31,000  Level Fort Worth Center
Mon 11:24:58 PM 32.2678 -99.3225 144° Southeast 355 409 31,000  Level Fort Worth Center
Mon 11:25:58 PM 32.1872 -99.2569 145° Southeast 355 409 31,000 -50 Level Fort Worth Center
Mon 11:26:58 PM 32.1047 -99.1914 146° Southeast 355 409 30,900 -350 Descending Fort Worth Center
Mon 11:27:58 PM 32.0200 -99.1211 145° Southeast 360 414 30,300 -550 Descending Fort Worth Center
Mon 11:28:58 PM 31.9353 -99.0536 146° Southeast 366 421 29,800 -550 Descending Fort Worth Center
Mon 11:29:58 PM 31.8486 -98.9836 146° Southeast 366 421 29,200 -296 Descending Fort Worth Center
Mon 11:31:40 PM 31.7142 -98.8714 145° Southeast 375 432 29,000 -74 Descending Houston Center
Mon 11:32:41 PM 31.6294 -98.8025 145° Southeast 368 423 29,000  Level Houston Center
Mon 11:33:42 PM 31.5461 -98.7364 146° Southeast 360 414 29,000  Level Houston Center
Mon 11:34:43 PM 31.4639 -98.6694 145° Southeast 358 412 29,000  Level Houston Center
Mon 11:35:43 PM 31.3797 -98.6033 146° Southeast 359 413 29,000 -744 Level Houston Center
Mon 11:36:44 PM 31.2928 -98.5336 146° Southeast 373 429 27,500 -1,537 Descending Houston Center
Mon 11:37:44 PM 31.2083 -98.4653 145° Southeast 368 423 25,900 -1,636 Descending Houston Center
Mon 11:38:45 PM 31.1250 -98.3986 146° Southeast 361 415 24,200 -1,623 Descending Houston Center
Mon 11:39:46 PM 31.0417 -98.3328 146° Southeast 359 413 22,600 -1,736 Descending Houston Center
Mon 11:40:46 PM 30.9589 -98.2678 146° Southeast 356 410 20,700 -1,934 Descending Houston Center
Mon 11:41:47 PM 30.8781 -98.2058 147° Southeast 346 398 18,700 -1,918 Descending Houston Center
Mon 11:42:48 PM 30.8031 -98.1475 146° Southeast 328 377 16,800 -1,934 Descending Houston Center
Mon 11:43:48 PM 30.7314 -98.0903 146° Southeast 312 359 14,800 -2,083 Descending Houston Center
Mon 11:44:49 PM 30.6600 -98.0342 146° Southeast 309 356 12,600 -2,182 Descending Houston Center
Mon 11:45:49 PM 30.5886 -97.9789 146° Southeast 307 353 10,400 -2,182 Descending Houston Center
Mon 11:46:50 PM 30.5214 -97.9258 146° Southeast 296 341 8,200 -2,182 Descending Houston Center
Mon 11:47:50 PM 30.4681 -97.8658 136° Southeast 270 311 6,000 -2,182 Descending Houston Center
Mon 11:48:51 PM 30.4156 -97.8050 135° Southeast 267 307 3,800 -1,537 Descending Houston Center
Mon 11:49:51 PM 30.3717 -97.7519 134° Southeast 248 285 2,900 -446 Descending Houston Center
Mon 11:50:52 PM 30.3356 -97.7097 135° Southeast 209 241 2,900 -248 Level Houston Center
Mon 11:51:52 PM 30.3036 -97.6678 131° Southeast 188 216 2,400 -645 Descending Houston Center
Mon 11:52:53 PM 30.2689 -97.6567 165° South 154 177 1,600 -645 Descending Houston Center
Mon 11:53:53 PM 30.2381 -97.6589 184° South 123 142 1,100 -496 Descending Houston Center
Mon 11:54:54 PM 30.2031 -97.6589 180° South 115 132 600 -492 Descending Houston Center
Mon 11:56:00 PM 30.1945 -97.6699 210° Southwest  Level Estimated
Tue 12:03:00 AM 30.1945 -97.6699 210° Southwest  Level Estimated

Login

Don't have an account? Register now (free) for customized features, flight alerts, and more!